Time;durP1;ratioP1;P1;durP2;ratioP2;P2;SDS_P1;SDS_P2;PMS_P1;PMS_P2;Temp;Humidity;BMP_temperature;BMP_pressure;BME280_temperature;BME280_humidity;BME280_pressure;Samples;Min_cycle;Max_cycle;Signal;HPM_P1;HPM_P2
2023/09/29 00:02:27;;;;;;;7.20;7.10;;;18.40;99.90;;;;;;5077538;28;20897;-66
2023/09/29 00:04:54;;;;;;;7.13;7.03;;;18.40;99.90;;;;;;5075197;28;20462;-67
2023/09/29 00:07:20;;;;;;;7.13;7.03;;;18.40;99.90;;;;;;5081191;28;20450;-66
2023/09/29 00:09:48;;;;;;;7.10;7.00;;;18.40;99.90;;;;;;5089555;28;20949;-66
2023/09/29 00:12:16;;;;;;;7.13;7.03;;;18.40;99.90;;;;;;5082740;28;20608;-66
2023/09/29 00:14:43;;;;;;;7.70;7.60;;;18.40;99.90;;;;;;5088935;28;20937;-66
2023/09/29 00:17:10;;;;;;;7.20;7.10;;;18.40;99.90;;;;;;5088709;28;20495;-67
2023/09/29 00:19:38;;;;;;;7.53;7.43;;;18.40;99.90;;;;;;5077048;28;20486;-67
2023/09/29 00:22:06;;;;;;;7.30;7.20;;;18.50;99.90;;;;;;5081220;28;20455;-66
2023/09/29 00:24:35;;;;;;;7.67;7.57;;;18.50;99.90;;;;;;5090084;28;20454;-67
2023/09/29 00:27:02;;;;;;;7.63;7.53;;;18.60;99.90;;;;;;5090087;28;20514;-66
2023/09/29 00:29:29;;;;;;;7.40;7.30;;;18.70;99.90;;;;;;5084235;28;20876;-67
2023/09/29 00:31:57;;;;;;;7.70;7.60;;;18.60;99.90;;;;;;5098143;28;20457;-67
2023/09/29 00:34:23;;;;;;;7.80;7.70;;;18.70;99.90;;;;;;5088931;28;20457;-67
2023/09/29 00:36:51;;;;;;;7.70;7.60;;;18.80;99.90;;;;;;5078798;28;20486;-67
2023/09/29 00:39:18;;;;;;;7.70;7.60;;;18.90;99.90;;;;;;5075883;28;20466;-66
2023/09/29 00:41:46;;;;;;;7.80;7.70;;;18.90;99.90;;;;;;5079826;28;21016;-65
2023/09/29 00:44:14;;;;;;;8.00;7.90;;;18.90;99.90;;;;;;5079657;28;20467;-66
2023/09/29 00:46:42;;;;;;;8.03;7.93;;;18.90;99.90;;;;;;5088099;28;20586;-65
2023/09/29 00:49:08;;;;;;;7.67;7.57;;;19.00;99.90;;;;;;5076810;28;20446;-67
2023/09/29 00:51:36;;;;;;;7.90;7.80;;;19.00;99.90;;;;;;5081710;28;20465;-66
2023/09/29 00:54:08;;;;;;;8.00;7.90;;;19.00;99.90;;;;;;5077498;28;20500;-65
2023/09/29 00:56:37;;;;;;;7.90;7.80;;;19.00;99.90;;;;;;5084384;28;20555;-66
2023/09/29 00:59:09;;;;;;;7.73;7.63;;;19.10;99.90;;;;;;5090575;28;20838;-66
2023/09/29 01:01:38;;;;;;;8.07;7.97;;;19.00;99.90;;;;;;5087370;28;21030;-66
2023/09/29 01:04:06;;;;;;;7.90;7.80;;;19.00;99.90;;;;;;5085687;28;20532;-65
2023/09/29 01:06:34;;;;;;;7.93;7.83;;;19.00;99.90;;;;;;5079263;28;20454;-66
2023/09/29 01:09:04;;;;;;;8.40;8.30;;;18.90;99.90;;;;;;5077464;28;21080;-65
2023/09/29 01:11:41;;;;;;;8.53;8.43;;;18.90;99.90;;;;;;5083291;28;20466;-66
2023/09/29 01:14:08;;;;;;;8.40;8.30;;;18.80;99.90;;;;;;5081075;28;20488;-65
2023/09/29 01:16:36;;;;;;;8.63;8.53;;;18.70;99.90;;;;;;5077225;28;20578;-67
2023/09/29 01:19:05;;;;;;;8.33;8.23;;;18.60;99.90;;;;;;5085857;28;20450;-65
2023/09/29 01:21:31;;;;;;;8.43;8.33;;;18.70;99.90;;;;;;5087107;28;20476;-66
2023/09/29 01:23:59;;;;;;;7.90;7.80;;;18.60;99.90;;;;;;5074677;28;20957;-67
2023/09/29 01:26:26;;;;;;;7.90;7.80;;;18.60;99.90;;;;;;5089351;28;20449;-66
2023/09/29 01:28:53;;;;;;;8.10;8.00;;;18.50;99.90;;;;;;5078849;28;21091;-65
2023/09/29 01:31:20;;;;;;;8.33;8.23;;;18.60;99.90;;;;;;5088200;28;20446;-66
2023/09/29 01:33:47;;;;;;;8.17;8.07;;;18.60;99.90;;;;;;5089280;28;20507;-66
2023/09/29 01:36:13;;;;;;;8.43;8.33;;;18.60;99.90;;;;;;5083628;28;20482;-66
2023/09/29 01:38:42;;;;;;;8.40;8.30;;;18.60;99.90;;;;;;5074207;28;20934;-66
2023/09/29 01:41:10;;;;;;;8.40;8.30;;;18.50;99.90;;;;;;5072733;28;20521;-68
2023/09/29 01:43:37;;;;;;;8.57;8.47;;;18.50;99.90;;;;;;5083850;28;21321;-66
2023/09/29 01:46:04;;;;;;;8.50;8.40;;;18.50;99.90;;;;;;5090407;28;20456;-67
2023/09/29 01:48:31;;;;;;;8.80;8.70;;;18.50;99.90;;;;;;5084216;28;20934;-66
2023/09/29 01:50:57;;;;;;;8.87;8.77;;;18.50;99.90;;;;;;5082759;28;20462;-65
2023/09/29 01:53:30;;;;;;;8.30;8.20;;;18.50;99.90;;;;;;5082938;28;20467;-67
2023/09/29 01:55:57;;;;;;;7.90;7.80;;;18.60;99.90;;;;;;5080178;28;20996;-67
2023/09/29 01:58:26;;;;;;;7.50;7.40;;;18.60;99.90;;;;;;5088888;28;20940;-66
2023/09/29 02:00:54;;;;;;;7.57;7.47;;;18.60;99.90;;;;;;5088379;28;20508;-66
2023/09/29 02:03:21;;;;;;;8.17;8.07;;;18.60;99.90;;;;;;5076724;28;20933;-65
2023/09/29 02:05:48;;;;;;;8.57;8.47;;;18.50;99.90;;;;;;5080740;28;20489;-66
2023/09/29 02:08:14;;;;;;;8.20;8.10;;;18.50;99.90;;;;;;5075692;28;20466;-66
2023/09/29 02:10:42;;;;;;;8.10;8.00;;;18.60;99.90;;;;;;5083366;28;20455;-65
2023/09/29 02:13:08;;;;;;;8.10;8.00;;;18.60;99.90;;;;;;5082713;28;20454;-66
2023/09/29 02:15:36;;;;;;;7.90;7.80;;;18.60;99.90;;;;;;5084573;28;20467;-66
2023/09/29 02:18:04;;;;;;;7.80;7.70;;;18.70;99.90;;;;;;5084629;28;20493;-67
2023/09/29 02:20:31;;;;;;;7.67;7.57;;;18.70;99.90;;;;;;5088394;28;20881;-67
2023/09/29 02:22:59;;;;;;;7.90;7.80;;;18.70;99.90;;;;;;5088771;28;20541;-65
2023/09/29 02:25:26;;;;;;;8.00;7.90;;;18.70;99.90;;;;;;5077688;28;20478;-66
2023/09/29 02:27:56;;;;;;;7.77;7.67;;;18.70;99.90;;;;;;5086721;28;20813;-66
2023/09/29 02:30:24;;;;;;;7.70;7.60;;;18.70;99.90;;;;;;5085741;28;20466;-65
2023/09/29 02:32:53;;;;;;;7.80;7.70;;;18.60;99.90;;;;;;5086135;28;20454;-65
2023/09/29 02:35:20;;;;;;;7.80;7.70;;;18.60;99.90;;;;;;5077599;28;20469;-66
2023/09/29 02:37:47;;;;;;;8.10;8.00;;;18.60;99.90;;;;;;5078611;28;20547;-66
2023/09/29 02:40:15;;;;;;;8.07;7.97;;;18.60;99.90;;;;;;5074833;28;20987;-65
2023/09/29 02:42:44;;;;;;;8.17;8.07;;;18.50;99.90;;;;;;5086211;28;20443;-66
2023/09/29 02:45:11;;;;;;;8.33;8.23;;;18.50;99.90;;;;;;5088232;28;20450;-66
2023/09/29 02:47:39;;;;;;;8.00;7.90;;;18.50;99.90;;;;;;5074214;28;20464;-65
2023/09/29 02:50:09;;;;;;;7.90;7.80;;;18.50;99.90;;;;;;5081822;28;20535;-66
2023/09/29 02:52:37;;;;;;;8.30;8.20;;;18.50;99.90;;;;;;5076429;28;20558;-66
2023/09/29 02:55:05;;;;;;;8.40;8.30;;;18.50;99.90;;;;;;5087989;28;20707;-65
2023/09/29 02:57:33;;;;;;;8.00;7.90;;;18.50;99.90;;;;;;5082546;28;20984;-66
2023/09/29 03:00:00;;;;;;;7.70;7.60;;;18.50;99.90;;;;;;5085646;28;20461;-66
2023/09/29 03:02:27;;;;;;;7.60;7.50;;;18.50;99.90;;;;;;5074122;28;20477;-66
2023/09/29 03:04:54;;;;;;;7.80;7.70;;;18.50;99.90;;;;;;5088319;28;20446;-65
2023/09/29 03:07:22;;;;;;;8.20;8.10;;;18.50;99.90;;;;;;5080545;28;20485;-66
2023/09/29 03:09:50;;;;;;;8.13;8.03;;;18.60;99.90;;;;;;5075146;28;20499;-66
2023/09/29 03:12:18;;;;;;;8.30;8.20;;;18.60;99.90;;;;;;5084595;28;20446;-66
2023/09/29 03:14:45;;;;;;;7.93;7.83;;;18.60;99.90;;;;;;5085411;28;20461;-66
2023/09/29 03:17:12;;;;;;;8.10;8.00;;;18.60;99.90;;;;;;5086476;28;20597;-66
2023/09/29 03:19:40;;;;;;;7.90;7.80;;;18.60;99.90;;;;;;5077131;28;21030;-66
2023/09/29 03:22:07;;;;;;;8.37;8.27;;;18.50;99.90;;;;;;5077074;28;20540;-65
2023/09/29 03:24:37;;;;;;;8.07;7.97;;;18.50;99.90;;;;;;5076547;28;20547;-65
2023/09/29 03:27:04;;;;;;;7.97;7.87;;;18.50;99.90;;;;;;5078973;28;21015;-65
2023/09/29 03:29:32;;;;;;;7.93;7.83;;;18.50;99.90;;;;;;5083724;28;20482;-66
2023/09/29 03:32:00;;;;;;;7.60;7.50;;;18.50;99.90;;;;;;5076778;28;20446;-66
2023/09/29 03:34:26;;;;;;;7.83;7.73;;;18.60;99.90;;;;;;5086469;28;20457;-66
2023/09/29 03:36:53;;;;;;;8.00;7.90;;;18.60;99.90;;;;;;5086866;28;20984;-66
2023/09/29 03:39:21;;;;;;;7.97;7.87;;;18.60;99.90;;;;;;5076332;28;21065;-66
2023/09/29 03:41:51;;;;;;;7.50;7.40;;;18.60;99.90;;;;;;5075897;28;20477;-65
2023/09/29 03:44:18;;;;;;;7.53;7.43;;;18.60;99.90;;;;;;5080522;28;20557;-65
2023/09/29 03:46:45;;;;;;;7.97;7.87;;;18.60;99.90;;;;;;5092075;28;20453;-66
2023/09/29 03:49:13;;;;;;;7.70;7.60;;;18.60;99.90;;;;;;5079679;28;20544;-66
2023/09/29 03:51:40;;;;;;;7.87;7.77;;;18.60;99.90;;;;;;5086612;28;20484;-67
2023/09/29 03:54:09;;;;;;;8.00;7.90;;;18.60;99.90;;;;;;5076635;28;20888;-66
2023/09/29 03:56:36;;;;;;;8.20;8.10;;;18.60;99.90;;;;;;5078325;28;20516;-67
2023/09/29 03:59:05;;;;;;;8.17;8.07;;;18.60;99.90;;;;;;5082092;28;20873;-67
2023/09/29 04:01:32;;;;;;;7.90;7.80;;;18.60;99.90;;;;;;5086491;28;20536;-67
2023/09/29 04:04:01;;;;;;;8.00;7.90;;;18.60;99.90;;;;;;5079329;28;20455;-66
2023/09/29 04:06:27;;;;;;;10.17;9.97;;;18.70;99.90;;;;;;5087052;28;21091;-64
2023/09/29 04:08:55;;;;;;;15.23;14.63;;;18.70;99.90;;;;;;5085049;28;20462;-67
2023/09/29 04:11:22;;;;;;;17.57;16.67;;;18.70;99.90;;;;;;5075779;28;20463;-66
2023/09/29 04:13:48;;;;;;;17.63;16.63;;;18.60;99.90;;;;;;5077381;28;21056;-67
2023/09/29 04:16:17;;;;;;;16.97;16.07;;;18.50;99.90;;;;;;5080532;28;20450;-66
2023/09/29 04:18:44;;;;;;;17.17;16.17;;;18.40;99.90;;;;;;5083948;28;20904;-67
2023/09/29 04:21:15;;;;;;;17.50;16.50;;;18.30;99.90;;;;;;5079470;28;20964;-66
2023/09/29 04:23:42;;;;;;;16.50;15.60;;;18.20;99.90;;;;;;5074390;28;20575;-66
2023/09/29 04:26:15;;;;;;;16.00;15.20;;;18.10;99.90;;;;;;5081576;28;20477;-65
2023/09/29 04:28:42;;;;;;;15.60;14.80;;;18.10;99.90;;;;;;5079592;28;20500;-66
2023/09/29 04:31:10;;;;;;;15.10;14.40;;;18.00;99.90;;;;;;5086733;28;20537;-66
2023/09/29 04:33:39;;;;;;;14.77;14.07;;;18.00;99.90;;;;;;5070392;28;20576;-65
2023/09/29 04:36:07;;;;;;;15.10;14.40;;;17.90;99.90;;;;;;5078299;28;20446;-66
2023/09/29 04:38:36;;;;;;;14.67;14.07;;;17.90;99.90;;;;;;5081439;28;20486;-65
2023/09/29 04:41:04;;;;;;;13.60;13.10;;;17.90;99.90;;;;;;5072881;28;20458;-65
2023/09/29 04:43:32;;;;;;;14.23;13.63;;;17.80;99.90;;;;;;5074186;28;20957;-66
2023/09/29 04:45:59;;;;;;;14.40;13.80;;;17.80;99.90;;;;;;5086420;28;20828;-66
2023/09/29 04:48:27;;;;;;;13.60;13.10;;;17.80;99.90;;;;;;5073260;28;20934;-66
2023/09/29 04:50:58;;;;;;;13.10;12.60;;;17.80;99.90;;;;;;5072264;28;20479;-64
2023/09/29 04:53:25;;;;;;;13.67;13.17;;;17.70;99.90;;;;;;5083281;28;20460;-66
2023/09/29 04:55:52;;;;;;;13.17;12.67;;;17.60;99.90;;;;;;5084826;28;20474;-66
2023/09/29 04:58:19;;;;;;;13.40;12.90;;;17.60;99.90;;;;;;5085864;28;20525;-66
2023/09/29 05:00:46;;;;;;;13.37;12.87;;;17.60;99.90;;;;;;5080915;28;20457;-66
2023/09/29 05:03:13;;;;;;;12.80;12.40;;;17.60;99.90;;;;;;5082545;28;20986;-67
2023/09/29 05:05:40;;;;;;;12.47;12.07;;;17.60;99.90;;;;;;5067368;28;20554;-67
2023/09/29 05:08:09;;;;;;;12.10;11.70;;;17.60;99.90;;;;;;5077773;28;20473;-66
2023/09/29 05:10:35;;;;;;;12.23;11.83;;;17.50;99.90;;;;;;5075245;28;20454;-67
2023/09/29 05:13:02;;;;;;;12.40;12.00;;;17.60;99.90;;;;;;5070056;28;20458;-67
2023/09/29 05:15:29;;;;;;;11.50;11.20;;;17.60;99.90;;;;;;5078606;28;20458;-66
2023/09/29 05:17:56;;;;;;;11.20;10.90;;;17.60;99.90;;;;;;5073796;28;20485;-66
2023/09/29 05:20:23;;;;;;;11.10;10.80;;;17.60;99.90;;;;;;5081146;28;20458;-66
2023/09/29 05:22:50;;;;;;;10.43;10.23;;;17.60;99.90;;;;;;5083016;28;20916;-65
2023/09/29 05:25:18;;;;;;;10.00;9.80;;;17.60;99.90;;;;;;5076088;28;20466;-66
2023/09/29 05:27:45;;;;;;;10.13;9.93;;;17.60;99.90;;;;;;5085477;28;20811;-66
2023/09/29 05:30:13;;;;;;;9.67;9.47;;;17.60;99.90;;;;;;5088338;28;20490;-66
2023/09/29 05:32:41;;;;;;;9.00;8.80;;;17.60;99.90;;;;;;5083813;28;20493;-66
2023/09/29 05:35:09;;;;;;;8.43;8.33;;;17.60;99.90;;;;;;5070493;28;20496;-67
2023/09/29 05:37:35;;;;;;;8.97;8.77;;;17.60;99.90;;;;;;5086927;28;20501;-65
2023/09/29 05:40:03;;;;;;;8.97;8.77;;;17.70;99.90;;;;;;5079742;28;20459;-66
2023/09/29 05:42:32;;;;;;;8.60;8.50;;;17.70;99.90;;;;;;5083454;28;20645;-66
2023/09/29 05:44:58;;;;;;;7.70;7.60;;;17.70;99.90;;;;;;5080748;28;20462;-66
2023/09/29 05:47:25;;;;;;;7.60;7.50;;;17.80;99.90;;;;;;5069681;28;20465;-67
2023/09/29 05:49:52;;;;;;;7.37;7.27;;;17.80;99.90;;;;;;5078274;28;20454;-66
2023/09/29 05:52:19;;;;;;;7.53;7.43;;;17.90;99.90;;;;;;5085521;28;20541;-66
2023/09/29 05:54:46;;;;;;;6.87;6.77;;;17.90;99.90;;;;;;5086750;28;20454;-67
2023/09/29 05:57:13;;;;;;;6.60;6.50;;;17.90;99.90;;;;;;5075929;28;20567;-66
2023/09/29 05:59:41;;;;;;;6.60;6.50;;;17.90;99.90;;;;;;5077652;28;20462;-66
2023/09/29 06:02:08;;;;;;;6.57;6.47;;;18.00;99.90;;;;;;5071808;28;20829;-67
2023/09/29 06:04:35;;;;;;;6.63;6.53;;;18.00;99.90;;;;;;5083239;28;20825;-66
2023/09/29 06:07:02;;;;;;;6.27;6.17;;;18.00;99.90;;;;;;5079626;28;20471;-66
2023/09/29 06:09:30;;;;;;;6.00;5.90;;;18.10;99.90;;;;;;5080564;28;20450;-66
2023/09/29 06:11:57;;;;;;;6.00;5.90;;;18.10;99.90;;;;;;5078894;28;20495;-67
2023/09/29 06:14:24;;;;;;;6.30;6.20;;;18.10;99.90;;;;;;5086740;28;20831;-67
2023/09/29 06:16:52;;;;;;;6.40;6.30;;;18.20;99.90;;;;;;5090543;28;20859;-66
2023/09/29 06:19:20;;;;;;;5.90;5.80;;;18.20;99.90;;;;;;5076578;28;21267;-66
2023/09/29 06:21:47;;;;;;;5.83;5.73;;;18.20;99.90;;;;;;5072969;28;20540;-67
2023/09/29 06:24:14;;;;;;;6.10;6.00;;;18.30;99.90;;;;;;5087911;28;21046;-66
2023/09/29 06:26:42;;;;;;;6.40;6.30;;;18.30;99.90;;;;;;5070954;28;20528;-65
2023/09/29 06:29:09;;;;;;;6.37;6.27;;;18.40;99.90;;;;;;5069368;28;20907;-66
2023/09/29 06:31:35;;;;;;;6.67;6.57;;;18.40;99.90;;;;;;5073874;28;20455;-66
2023/09/29 06:34:04;;;;;;;6.40;6.30;;;18.50;99.90;;;;;;5073844;28;20475;-65
2023/09/29 06:36:30;;;;;;;6.63;6.53;;;18.60;99.90;;;;;;5075179;28;20458;-67
2023/09/29 06:38:57;;;;;;;6.40;6.30;;;18.70;99.90;;;;;;5079543;28;20483;-66
2023/09/29 06:41:25;;;;;;;6.47;6.37;;;18.70;99.90;;;;;;5085231;28;20465;-65
2023/09/29 06:43:53;;;;;;;6.73;6.63;;;18.70;99.90;;;;;;5075608;28;20891;-67
2023/09/29 06:46:20;;;;;;;7.40;7.30;;;18.70;99.90;;;;;;5074490;28;20468;-67
2023/09/29 06:48:47;;;;;;;7.40;7.30;;;18.80;99.90;;;;;;5074574;28;20469;-66
2023/09/29 06:51:17;;;;;;;7.10;7.00;;;18.90;99.90;;;;;;5086115;28;20458;-66
2023/09/29 06:53:44;;;;;;;7.47;7.37;;;19.00;99.90;;;;;;5078477;28;20458;-67
2023/09/29 06:56:11;;;;;;;7.70;7.60;;;19.10;99.90;;;;;;5072140;28;21112;-67
2023/09/29 06:58:38;;;;;;;7.20;7.10;;;19.10;99.90;;;;;;5074429;28;20605;-66
2023/09/29 07:01:06;;;;;;;7.97;7.87;;;19.20;99.90;;;;;;5081414;28;20868;-67
2023/09/29 07:03:33;;;;;;;8.40;8.30;;;19.20;99.90;;;;;;5067957;28;20873;-67
2023/09/29 07:06:00;;;;;;;8.20;8.10;;;19.30;99.90;;;;;;5081490;28;20964;-67
2023/09/29 07:08:28;;;;;;;8.20;8.10;;;19.50;99.90;;;;;;5073080;28;20929;-67
2023/09/29 07:10:56;;;;;;;9.17;8.97;;;19.70;99.90;;;;;;5083479;28;21198;-66
2023/09/29 07:13:22;;;;;;;8.80;8.70;;;20.00;99.90;;;;;;5083481;28;20461;-66
2023/09/29 07:15:49;;;;;;;9.30;9.10;;;20.30;99.90;;;;;;5080252;28;20944;-66
2023/09/29 07:18:16;;;;;;;10.03;9.83;;;20.50;99.90;;;;;;5072175;28;21087;-66
2023/09/29 07:20:43;;;;;;;10.30;10.10;;;20.60;99.90;;;;;;5057401;28;20578;-67
2023/09/29 07:23:11;;;;;;;10.40;10.20;;;20.80;99.90;;;;;;5070071;28;21004;-67
2023/09/29 07:25:40;;;;;;;10.60;10.40;;;20.80;99.90;;;;;;5077406;28;20454;-66
2023/09/29 07:28:13;;;;;;;11.20;10.90;;;20.90;99.90;;;;;;5078309;28;20462;-67
2023/09/29 07:30:41;;;;;;;11.40;11.10;;;20.90;99.90;;;;;;5071945;28;20520;-67
2023/09/29 07:33:09;;;;;;;11.60;11.30;;;20.90;99.90;;;;;;5068336;28;21056;-66
2023/09/29 07:35:36;;;;;;;11.90;11.60;;;20.80;99.90;;;;;;5075044;28;20459;-66
2023/09/29 07:38:03;;;;;;;11.50;11.20;;;20.90;99.90;;;;;;5073287;28;20574;-66
2023/09/29 07:40:30;;;;;;;11.77;11.47;;;21.00;99.90;;;;;;5077665;28;20489;-67
2023/09/29 07:42:59;;;;;;;11.70;11.40;;;21.20;99.90;;;;;;5071634;28;21044;-67
2023/09/29 07:45:26;;;;;;;11.70;11.40;;;21.20;99.90;;;;;;5076885;28;20461;-67
2023/09/29 07:47:53;;;;;;;11.60;11.30;;;21.30;99.90;;;;;;5069865;28;20466;-67
2023/09/29 07:50:19;;;;;;;12.43;12.13;;;21.40;99.90;;;;;;5077168;28;20968;-66
2023/09/29 07:52:46;;;;;;;12.30;12.00;;;21.40;99.90;;;;;;5073910;28;20466;-67
2023/09/29 07:55:14;;;;;;;12.90;12.50;;;21.50;99.90;;;;;;5069940;28;21301;-67
2023/09/29 07:57:41;;;;;;;12.40;12.10;;;21.60;99.90;;;;;;5077849;28;20963;-68
2023/09/29 08:00:11;;;;;;;12.70;12.30;;;21.60;99.90;;;;;;5073947;28;20564;-67
2023/09/29 08:02:39;;;;;;;12.73;12.33;;;21.80;99.90;;;;;;5076425;28;20523;-67
2023/09/29 08:05:07;;;;;;;13.17;12.77;;;22.00;99.90;;;;;;5065876;28;20458;-67
2023/09/29 08:07:35;;;;;;;13.07;12.67;;;22.00;99.90;;;;;;5077329;28;20582;-68
2023/09/29 08:10:03;;;;;;;12.87;12.47;;;22.10;99.90;;;;;;5078563;28;20458;-67
2023/09/29 08:12:31;;;;;;;12.50;12.20;;;22.20;99.90;;;;;;5085069;28;20449;-67
2023/09/29 08:14:57;;;;;;;13.00;12.60;;;22.30;99.90;;;;;;5079223;28;20542;-67
2023/09/29 08:17:27;;;;;;;13.40;13.00;;;22.40;99.90;;;;;;5074278;28;20465;-67
2023/09/29 08:19:55;;;;;;;13.20;12.80;;;22.40;99.90;;;;;;5065805;28;20498;-67
2023/09/29 08:22:21;;;;;;;13.20;12.80;;;22.60;99.90;;;;;;5075911;28;20455;-67
2023/09/29 08:24:48;;;;;;;13.30;12.90;;;22.80;99.90;;;;;;5079703;28;20458;-68
2023/09/29 08:27:15;;;;;;;13.30;12.90;;;22.90;99.90;;;;;;5072409;28;21414;-69
2023/09/29 08:29:42;;;;;;;13.63;13.23;;;23.10;99.90;;;;;;5072419;28;20479;-67
2023/09/29 08:32:09;;;;;;;13.17;12.77;;;23.30;99.90;;;;;;5083057;28;20458;-68
2023/09/29 08:34:39;;;;;;;12.90;12.50;;;23.40;99.90;;;;;;5074606;28;20463;-67
2023/09/29 08:37:06;;;;;;;13.17;12.77;;;23.40;99.90;;;;;;5081798;28;20489;-67
2023/09/29 08:39:33;;;;;;;13.70;13.30;;;23.40;99.90;;;;;;5075742;28;21024;-66
2023/09/29 08:42:05;;;;;;;13.73;13.33;;;23.50;99.90;;;;;;5078462;28;20462;-65
2023/09/29 08:44:34;;;;;;;13.90;13.50;;;23.60;99.90;;;;;;5085062;28;20450;-67
2023/09/29 08:47:02;;;;;;;14.20;13.70;;;23.50;99.90;;;;;;5085879;28;20450;-67
2023/09/29 08:49:29;;;;;;;13.80;13.40;;;23.40;99.90;;;;;;5081195;28;20462;-68
2023/09/29 08:52:01;;;;;;;13.67;13.27;;;23.40;99.90;;;;;;5075466;28;20790;-67
2023/09/29 08:54:29;;;;;;;13.47;13.07;;;23.50;99.90;;;;;;5083789;28;20541;-66
2023/09/29 08:56:58;;;;;;;13.63;13.23;;;23.30;99.90;;;;;;5078896;28;20469;-66
2023/09/29 08:59:27;;;;;;;13.73;13.33;;;22.90;99.90;;;;;;5085161;28;20493;-65
2023/09/29 09:01:55;;;;;;;13.50;13.10;;;22.90;99.90;;;;;;5082130;28;20924;-66
2023/09/29 09:04:22;;;;;;;13.60;13.20;;;22.60;99.90;;;;;;5081700;28;20822;-67
2023/09/29 09:06:49;;;;;;;13.43;13.03;;;22.80;99.90;;;;;;5086444;28;20461;-65
2023/09/29 09:09:23;;;;;;;13.10;12.70;;;23.00;99.90;;;;;;5076229;28;20453;-66
2023/09/29 09:11:51;;;;;;;13.40;13.00;;;23.10;99.90;;;;;;5065599;28;20473;-69
2023/09/29 09:14:18;;;;;;;13.20;12.80;;;23.40;99.90;;;;;;5081985;28;20442;-66
2023/09/29 09:16:45;;;;;;;13.40;13.00;;;23.30;99.90;;;;;;5081805;28;20459;-66
2023/09/29 09:19:13;;;;;;;13.00;12.60;;;23.30;99.90;;;;;;5073647;28;20485;-66
2023/09/29 09:21:41;;;;;;;13.13;12.73;;;23.20;99.90;;;;;;5078558;28;21004;-66
2023/09/29 09:24:19;;;;;;;13.30;12.90;;;23.20;99.90;;;;;;5068927;28;20462;-67
2023/09/29 09:26:46;;;;;;;13.00;12.60;;;23.20;99.90;;;;;;5067145;28;20877;-67
2023/09/29 09:29:16;;;;;;;13.10;12.70;;;23.00;99.90;;;;;;5072099;28;20553;-66
2023/09/29 09:31:44;;;;;;;13.17;12.77;;;22.90;99.90;;;;;;5074725;28;20478;-67
2023/09/29 09:34:13;;;;;;;13.13;12.73;;;23.00;99.90;;;;;;5081690;28;20459;-67
2023/09/29 09:36:52;;;;;;;13.43;13.03;;;22.90;99.90;;;;;;5080058;28;20552;-68
2023/09/29 09:39:24;;;;;;;13.00;12.60;;;23.00;99.90;;;;;;5074895;28;20482;-69
2023/09/29 09:41:54;;;;;;;12.80;12.40;;;23.00;99.90;;;;;;5083767;28;20468;-68
2023/09/29 09:44:21;;;;;;;12.90;12.50;;;23.00;99.90;;;;;;5068633;28;20457;-67
2023/09/29 09:46:54;;;;;;;12.93;12.53;;;23.20;99.90;;;;;;5077196;28;20466;-69
2023/09/29 09:49:28;;;;;;;13.13;12.73;;;23.10;99.90;;;;;;5084338;28;20891;-67
2023/09/29 09:52:03;;;;;;;13.00;12.60;;;23.20;99.90;;;;;;5071659;28;20457;-67
2023/09/29 09:54:35;;;;;;;13.10;12.70;;;23.50;99.90;;;;;;5073252;28;20553;-70
2023/09/29 09:57:08;;;;;;;12.90;12.50;;;23.90;99.90;;;;;;5073489;28;21079;-67
2023/09/29 09:59:35;;;;;;;13.20;12.80;;;24.40;99.90;;;;;;5076470;28;20543;-69
2023/09/29 10:02:06;;;;;;;13.07;12.67;;;24.80;99.90;;;;;;5078426;28;20468;-68
2023/09/29 10:04:35;;;;;;;13.20;12.80;;;25.00;99.90;;;;;;5085832;28;20457;-68
2023/09/29 10:07:04;;;;;;;13.00;12.60;;;24.70;99.90;;;;;;5076672;28;20466;-69
2023/09/29 10:09:43;;;;;;;13.17;12.77;;;23.90;99.90;;;;;;5083451;28;20503;-67
2023/09/29 10:12:22;;;;;;;13.10;12.70;;;23.80;99.90;;;;;;5086079;28;20458;-69
2023/09/29 10:14:48;;;;;;;13.00;12.60;;;24.00;99.90;;;;;;5071342;28;20486;-68
2023/09/29 10:17:16;;;;;;;12.93;12.53;;;24.10;99.90;;;;;;5075990;28;20473;-67
2023/09/29 10:19:45;;;;;;;13.00;12.60;;;24.10;99.90;;;;;;5085217;28;20485;-66
2023/09/29 10:22:22;;;;;;;13.30;12.90;;;24.20;99.90;;;;;;5083964;28;20828;-68
2023/09/29 10:24:56;;;;;;;13.10;12.70;;;24.20;99.90;;;;;;5077183;28;20465;-69
2023/09/29 10:27:30;;;;;;;13.40;13.00;;;24.40;99.90;;;;;;5074493;28;20466;-67
2023/09/29 10:30:15;;;;;;;12.77;12.37;;;25.00;99.90;;;;;;5077643;28;20475;-67
2023/09/29 10:32:43;;;;;;;12.80;12.40;;;24.90;99.90;;;;;;5072439;28;20471;-67
2023/09/29 10:35:18;;;;;;;13.17;12.77;;;24.80;99.90;;;;;;5078126;28;20871;-67
2023/09/29 10:37:47;;;;;;;13.00;12.60;;;24.80;99.90;;;;;;5077643;28;21066;-66
2023/09/29 10:40:27;;;;;;;14.00;13.60;;;24.90;99.90;;;;;;5080008;28;20596;-66
2023/09/29 10:42:56;;;;;;;13.57;13.17;;;25.00;99.90;;;;;;5084657;28;20964;-67
2023/09/29 10:45:29;;;;;;;13.10;12.70;;;25.00;99.90;;;;;;5081936;28;20466;-68
2023/09/29 10:48:02;;;;;;;13.83;13.43;;;25.20;99.90;;;;;;5075913;28;20493;-66
2023/09/29 10:50:29;;;;;;;13.60;13.20;;;25.50;99.90;;;;;;5075279;28;20462;-66
2023/09/29 10:52:56;;;;;;;13.67;13.27;;;25.60;99.90;;;;;;5074113;28;20461;-66
2023/09/29 10:55:24;;;;;;;14.00;13.60;;;25.20;99.90;;;;;;5074327;28;20553;-67
2023/09/29 10:57:52;;;;;;;13.67;13.27;;;25.50;99.90;;;;;;5074087;28;20977;-68
2023/09/29 11:00:20;;;;;;;13.30;12.90;;;25.60;99.90;;;;;;5075582;28;21143;-67
2023/09/29 11:02:49;;;;;;;13.07;12.67;;;25.90;99.90;;;;;;5070414;28;20485;-66
2023/09/29 11:05:17;;;;;;;13.23;12.83;;;26.30;99.90;;;;;;5074609;28;20876;-67
2023/09/29 11:07:48;;;;;;;13.07;12.67;;;25.80;99.90;;;;;;5073960;28;20948;-66
2023/09/29 11:10:18;;;;;;;13.77;13.37;;;25.80;99.90;;;;;;5076081;28;20462;-66
2023/09/29 11:12:47;;;;;;;13.00;12.60;;;25.50;99.90;;;;;;5082270;28;20973;-66
2023/09/29 11:15:16;;;;;;;13.50;13.10;;;25.40;99.90;;;;;;5074818;28;20450;-67
2023/09/29 11:17:46;;;;;;;14.00;13.60;;;25.50;99.90;;;;;;5075507;28;20482;-67
2023/09/29 11:20:25;;;;;;;13.10;12.70;;;25.80;99.90;;;;;;5083380;28;20841;-69
2023/09/29 11:23:03;;;;;;;13.63;13.23;;;26.30;99.90;;;;;;5076392;28;20466;-68
2023/09/29 11:25:31;;;;;;;14.17;13.77;;;26.70;99.90;;;;;;5076600;28;20537;-68
2023/09/29 11:27:59;;;;;;;13.27;12.87;;;26.60;99.90;;;;;;5071847;28;20468;-67
2023/09/29 11:30:27;;;;;;;13.53;13.13;;;26.70;99.90;;;;;;5074583;28;20469;-67
2023/09/29 11:32:54;;;;;;;14.10;13.70;;;27.00;99.90;;;;;;5073583;28;20474;-67
2023/09/29 11:35:36;;;;;;;13.77;13.37;;;26.80;99.90;;;;;;5077209;28;20453;-68
2023/09/29 11:38:05;;;;;;;13.63;13.23;;;26.80;99.90;;;;;;5069632;28;20483;-68
2023/09/29 11:40:33;;;;;;;12.97;12.60;;;26.30;99.90;;;;;;5069077;28;20498;-67
2023/09/29 11:43:03;;;;;;;12.83;12.53;;;26.40;99.90;;;;;;5075738;28;20451;-67
2023/09/29 11:45:30;;;;;;;13.70;13.30;;;26.70;99.90;;;;;;5080428;28;20919;-68
2023/09/29 11:47:56;;;;;;;13.30;12.90;;;27.10;99.90;;;;;;5080715;28;20466;-67
2023/09/29 11:50:23;;;;;;;13.10;12.70;;;26.40;99.90;;;;;;5079875;28;20454;-68
2023/09/29 11:52:50;;;;;;;13.33;12.93;;;26.00;99.90;;;;;;5084785;28;20979;-68
2023/09/29 11:55:18;;;;;;;12.97;12.57;;;25.20;99.90;;;;;;5075387;28;20462;-68
2023/09/29 11:57:45;;;;;;;12.83;12.43;;;24.80;99.90;;;;;;5077267;28;20473;-67
2023/09/29 12:00:14;;;;;;;12.60;12.30;;;24.50;99.90;;;;;;5083027;28;20505;-68
2023/09/29 12:02:41;;;;;;;12.20;11.90;;;24.30;99.90;;;;;;5081093;28;20469;-67
2023/09/29 12:05:11;;;;;;;12.47;12.17;;;24.20;99.90;;;;;;5081478;28;20450;-68
2023/09/29 12:07:38;;;;;;;12.17;11.87;;;23.80;99.90;;;;;;5081186;28;20472;-67
2023/09/29 12:10:06;;;;;;;13.10;12.70;;;23.50;99.90;;;;;;5073504;28;20465;-66
2023/09/29 12:12:33;;;;;;;12.63;12.30;;;23.30;99.90;;;;;;5080879;28;20446;-67
2023/09/29 12:15:00;;;;;;;12.40;12.10;;;23.20;99.90;;;;;;5080412;28;20454;-67
2023/09/29 12:17:28;;;;;;;12.10;11.80;;;23.30;99.90;;;;;;5077875;28;20460;-67
2023/09/29 12:19:55;;;;;;;13.30;12.90;;;23.40;99.90;;;;;;5076705;28;20506;-68
2023/09/29 12:22:24;;;;;;;15.00;14.50;;;23.00;99.90;;;;;;5075655;28;20455;-66
2023/09/29 12:24:51;;;;;;;12.97;12.57;;;22.60;99.90;;;;;;5075887;28;20516;-69
2023/09/29 12:27:18;;;;;;;12.90;12.50;;;22.20;99.90;;;;;;5075550;28;20458;-68
2023/09/29 12:29:45;;;;;;;11.80;11.50;;;22.00;99.90;;;;;;5068853;28;20493;-68
2023/09/29 12:32:12;;;;;;;12.20;11.90;;;22.00;99.90;;;;;;5081714;28;20542;-67
2023/09/29 12:34:41;;;;;;;12.00;11.70;;;21.90;99.90;;;;;;5084301;28;20458;-69
2023/09/29 12:37:09;;;;;;;11.90;11.60;;;21.80;99.90;;;;;;5081005;28;20470;-67
2023/09/29 12:39:39;;;;;;;11.30;11.00;;;21.90;99.90;;;;;;5074234;28;20522;-67
2023/09/29 12:42:08;;;;;;;17.13;16.30;;;21.90;99.90;;;;;;5072093;28;20592;-68